createdAt,value
2023-03-31T00:00:37.497Z,6.60
2023-03-31T00:03:22.770Z,7.10
2023-03-31T00:06:01.517Z,6.70
2023-03-31T00:08:36.031Z,6.40
2023-03-31T00:11:10.213Z,5.90
2023-03-31T00:13:40.158Z,6.30
2023-03-31T00:16:48.582Z,5.70
2023-03-31T00:19:20.380Z,6.80
2023-03-31T00:21:49.441Z,5.80
2023-03-31T00:24:19.207Z,5.00
2023-03-31T00:26:47.978Z,7.10
2023-03-31T00:29:16.843Z,6.10
2023-03-31T00:31:45.822Z,5.60
2023-03-31T00:34:15.768Z,5.70
2023-03-31T00:36:50.673Z,5.50
2023-03-31T00:39:19.836Z,5.60
2023-03-31T00:41:49.235Z,6.20
2023-03-31T00:44:27.652Z,6.10
2023-03-31T00:47:02.741Z,6.40
2023-03-31T00:49:41.046Z,6.00
2023-03-31T00:52:19.297Z,6.10
2023-03-31T00:54:54.233Z,6.40
2023-03-31T00:57:26.394Z,5.80
2023-03-31T01:00:03.463Z,5.90
2023-03-31T01:02:32.271Z,6.90
2023-03-31T01:05:02.755Z,6.60
2023-03-31T01:07:38.890Z,6.20
2023-03-31T01:10:09.232Z,6.40
2023-03-31T01:12:41.663Z,6.40
2023-03-31T01:15:15.191Z,5.70
2023-03-31T01:17:45.248Z,6.20
2023-03-31T01:20:49.336Z,5.60
2023-03-31T01:23:42.116Z,6.60
2023-03-31T01:26:55.153Z,6.00
2023-03-31T01:29:45.945Z,6.50
2023-03-31T01:32:26.846Z,5.60
2023-03-31T01:35:32.045Z,6.40
2023-03-31T01:38:18.914Z,7.50
2023-03-31T01:40:50.598Z,6.20
2023-03-31T01:43:32.033Z,5.70
2023-03-31T01:46:15.664Z,5.40
2023-03-31T01:49:22.684Z,5.40
2023-03-31T01:52:25.024Z,6.30
2023-03-31T01:55:07.357Z,5.90
2023-03-31T01:57:41.932Z,10.00
2023-03-31T02:00:15.477Z,7.90
2023-03-31T02:03:22.273Z,6.70
2023-03-31T02:05:59.581Z,14.50
2023-03-31T02:08:33.983Z,10.10
2023-03-31T02:13:34.934Z,14.10
2023-03-31T02:16:10.336Z,13.60
2023-03-31T02:18:42.119Z,8.50
2023-03-31T02:21:13.938Z,8.50
2023-03-31T02:23:45.237Z,7.00
2023-03-31T02:26:29.516Z,5.20
2023-03-31T02:28:59.340Z,5.90
2023-03-31T02:31:48.845Z,6.60
2023-03-31T02:34:19.026Z,5.70
2023-03-31T02:36:47.569Z,5.50
2023-03-31T02:39:22.418Z,5.70
2023-03-31T02:41:51.525Z,5.90
2023-03-31T02:44:20.670Z,5.20
2023-03-31T02:46:50.685Z,5.70
2023-03-31T02:49:20.399Z,6.40
2023-03-31T02:52:20.358Z,8.40
2023-03-31T02:55:10.986Z,9.10
2023-03-31T02:58:13.720Z,12.00
2023-03-31T03:01:14.529Z,12.00
2023-03-31T03:03:56.688Z,12.30
2023-03-31T03:06:37.940Z,13.10
2023-03-31T03:09:30.575Z,14.00
2023-03-31T03:12:18.691Z,14.30
2023-03-31T03:14:52.806Z,14.10
2023-03-31T03:17:29.636Z,11.90
2023-03-31T03:20:02.183Z,11.00
2023-03-31T03:22:31.328Z,11.00
2023-03-31T03:24:59.901Z,10.90
2023-03-31T03:27:30.186Z,9.50
2023-03-31T03:29:59.517Z,9.70
2023-03-31T03:32:28.424Z,9.70
2023-03-31T03:34:57.820Z,10.20
2023-03-31T03:37:27.317Z,9.60
2023-03-31T03:39:56.587Z,9.30
2023-03-31T03:42:25.708Z,7.20
2023-03-31T03:44:54.822Z,8.30
2023-03-31T03:47:23.476Z,7.80
2023-03-31T03:49:52.166Z,6.30
2023-03-31T03:52:21.988Z,6.10
2023-03-31T03:54:51.429Z,6.20
2023-03-31T03:57:20.032Z,5.10
2023-03-31T03:59:48.991Z,5.00
2023-03-31T04:02:18.343Z,5.70
2023-03-31T04:04:48.159Z,5.70
2023-03-31T04:07:18.428Z,7.00
2023-03-31T04:09:47.388Z,10.80
2023-03-31T04:12:16.037Z,9.90
2023-03-31T04:14:44.945Z,14.10
2023-03-31T04:17:16.145Z,10.60
2023-03-31T04:19:44.931Z,8.40
2023-03-31T04:22:16.307Z,10.80
2023-03-31T04:24:47.227Z,8.50
2023-03-31T04:27:17.850Z,8.80
2023-03-31T04:29:48.083Z,7.80
2023-03-31T04:32:22.021Z,5.60
2023-03-31T04:35:03.091Z,5.00
2023-03-31T04:37:35.058Z,5.00
2023-03-31T04:40:10.439Z,4.20
2023-03-31T04:42:39.277Z,4.50
2023-03-31T04:45:08.854Z,4.30
2023-03-31T04:47:37.802Z,4.30
2023-03-31T04:50:16.095Z,4.50
2023-03-31T04:52:46.634Z,3.80
2023-03-31T04:55:15.588Z,3.60
2023-03-31T04:57:44.504Z,4.20
2023-03-31T05:00:14.633Z,3.70
2023-03-31T05:02:43.492Z,3.70
2023-03-31T05:05:12.951Z,3.50
2023-03-31T05:07:42.089Z,3.90
2023-03-31T05:10:11.219Z,4.60
2023-03-31T05:12:40.831Z,9.70
2023-03-31T05:15:15.443Z,7.70
2023-03-31T05:17:45.410Z,3.70
2023-03-31T05:20:15.101Z,4.00
2023-03-31T05:22:44.190Z,3.70
2023-03-31T05:25:19.207Z,4.80
2023-03-31T05:27:48.491Z,3.30
2023-03-31T05:30:18.169Z,3.10
2023-03-31T05:32:49.414Z,3.30
2023-03-31T05:35:18.856Z,3.20
2023-03-31T05:37:47.420Z,3.30
2023-03-31T05:40:16.762Z,3.30
2023-03-31T05:42:45.861Z,2.60
2023-03-31T05:45:18.743Z,3.10
2023-03-31T05:47:47.859Z,3.10
2023-03-31T05:50:16.892Z,3.40
2023-03-31T05:52:45.811Z,2.80
2023-03-31T05:55:14.943Z,3.30
2023-03-31T05:57:44.063Z,3.00
2023-03-31T06:00:13.323Z,3.50
2023-03-31T06:02:43.136Z,3.30
2023-03-31T06:05:12.217Z,3.00
2023-03-31T06:07:41.624Z,3.30
2023-03-31T06:10:19.073Z,3.20
2023-03-31T06:12:50.608Z,3.30
2023-03-31T06:15:19.062Z,3.00
2023-03-31T06:17:48.193Z,2.80
2023-03-31T06:20:27.890Z,3.90
2023-03-31T06:22:57.285Z,3.30
2023-03-31T06:25:25.941Z,2.90
2023-03-31T06:27:56.882Z,3.00
2023-03-31T06:30:25.353Z,3.00
2023-03-31T06:32:54.000Z,3.00
2023-03-31T06:35:22.850Z,2.80
2023-03-31T06:37:54.518Z,2.80
2023-03-31T06:40:23.462Z,2.90
2023-03-31T06:42:52.347Z,3.20
2023-03-31T06:45:24.336Z,3.00
2023-03-31T06:47:53.447Z,2.80
2023-03-31T06:50:22.221Z,2.90
2023-03-31T06:52:55.661Z,2.90
2023-03-31T06:55:27.354Z,3.30
2023-03-31T06:57:56.282Z,3.10
2023-03-31T07:00:27.739Z,2.60
2023-03-31T07:02:56.948Z,3.00
2023-03-31T07:05:28.080Z,3.00
2023-03-31T07:07:59.048Z,3.20
2023-03-31T07:10:30.437Z,3.10
2023-03-31T07:12:59.801Z,3.60
2023-03-31T07:15:30.858Z,4.90
2023-03-31T07:18:02.946Z,6.30
2023-03-31T07:20:33.106Z,7.00
2023-03-31T07:23:05.477Z,7.70
2023-03-31T07:25:34.043Z,7.10
2023-03-31T07:28:05.303Z,8.60
2023-03-31T07:30:34.615Z,11.60
2023-03-31T07:33:03.494Z,11.60
2023-03-31T07:35:32.432Z,13.70
2023-03-31T07:38:01.409Z,10.80
2023-03-31T07:40:30.787Z,6.20
2023-03-31T07:42:59.968Z,10.80
2023-03-31T07:45:30.191Z,6.40
2023-03-31T07:48:01.640Z,7.90
2023-03-31T07:50:31.242Z,8.30
2023-03-31T07:53:00.232Z,4.70
2023-03-31T07:55:29.102Z,4.40
2023-03-31T07:57:58.303Z,4.50
2023-03-31T08:00:27.560Z,4.60
2023-03-31T08:02:56.710Z,3.60
2023-03-31T08:05:25.664Z,2.60
2023-03-31T08:07:57.492Z,2.80
2023-03-31T08:10:28.286Z,2.70
2023-03-31T08:12:57.054Z,3.00
2023-03-31T08:19:29.184Z,3.70
2023-03-31T08:21:57.858Z,3.60
2023-03-31T08:24:26.363Z,3.00
2023-03-31T08:26:54.995Z,3.30
2023-03-31T08:29:23.626Z,3.40
2023-03-31T08:31:52.149Z,3.60
2023-03-31T08:34:21.293Z,3.40
2023-03-31T08:36:50.622Z,2.90
2023-03-31T08:39:19.124Z,3.30
2023-03-31T08:41:57.573Z,3.00
2023-03-31T08:44:50.742Z,3.10
2023-03-31T08:47:24.268Z,3.40
2023-03-31T08:49:59.077Z,3.80
2023-03-31T08:52:35.009Z,3.40
2023-03-31T08:55:08.189Z,3.30
2023-03-31T08:57:47.518Z,3.10
2023-03-31T09:00:19.063Z,3.40
2023-03-31T09:03:05.799Z,3.40
2023-03-31T09:06:00.137Z,3.70
2023-03-31T09:08:41.657Z,3.40
2023-03-31T09:11:16.890Z,2.90
2023-03-31T09:14:04.513Z,3.50
2023-03-31T09:16:43.837Z,3.20
2023-03-31T09:19:22.657Z,4.10
2023-03-31T09:21:56.835Z,3.80
2023-03-31T09:24:32.755Z,4.70
2023-03-31T09:27:08.870Z,3.30
2023-03-31T09:30:12.545Z,3.80
2023-03-31T09:32:42.074Z,3.20
2023-03-31T09:35:22.063Z,3.80
2023-03-31T09:37:51.439Z,3.00
2023-03-31T09:40:25.788Z,3.90
2023-03-31T09:43:02.157Z,3.60
2023-03-31T09:45:31.825Z,2.90
2023-03-31T09:48:08.132Z,3.60
2023-03-31T09:51:00.998Z,3.10
2023-03-31T09:53:56.887Z,4.00
2023-03-31T09:56:54.102Z,4.70
2023-03-31T09:59:31.397Z,3.30
2023-03-31T10:02:03.872Z,3.40
2023-03-31T10:04:35.594Z,3.60
2023-03-31T10:07:05.764Z,3.80
2023-03-31T10:09:38.411Z,3.50
2023-03-31T10:12:16.100Z,3.20
2023-03-31T10:14:47.551Z,3.60
2023-03-31T10:17:21.620Z,3.10
2023-03-31T10:19:54.818Z,3.30
2023-03-31T10:22:23.201Z,2.90
2023-03-31T10:24:53.434Z,3.20
2023-03-31T10:27:26.610Z,2.90
2023-03-31T10:29:58.387Z,2.90
2023-03-31T10:32:29.562Z,3.20
2023-03-31T10:35:04.355Z,3.00
2023-03-31T10:37:36.045Z,3.00
2023-03-31T10:40:18.626Z,3.50
2023-03-31T10:42:59.411Z,3.30
2023-03-31T10:45:37.784Z,3.10
2023-03-31T10:48:40.151Z,3.10
2023-03-31T10:51:28.264Z,3.50
2023-03-31T10:54:03.698Z,3.00
2023-03-31T10:56:48.667Z,3.60
2023-03-31T10:59:41.627Z,2.40
2023-03-31T11:02:22.647Z,3.80
2023-03-31T11:05:16.370Z,3.10
2023-03-31T11:07:51.434Z,3.00
2023-03-31T11:10:41.447Z,2.50
2023-03-31T11:13:44.585Z,3.10
2023-03-31T11:16:45.065Z,3.80
2023-03-31T11:19:35.494Z,3.20
2023-03-31T11:22:21.856Z,3.80
2023-03-31T11:25:25.658Z,2.90
2023-03-31T11:31:30.394Z,3.30
2023-03-31T11:34:29.765Z,3.50
2023-03-31T11:37:46.086Z,3.40
2023-03-31T11:40:47.959Z,3.20
2023-03-31T11:43:43.284Z,3.60
2023-03-31T11:46:40.872Z,3.20
2023-03-31T11:49:23.280Z,3.00
2023-03-31T11:51:54.991Z,2.60
2023-03-31T11:54:46.429Z,2.50
2023-03-31T11:57:45.624Z,2.50
2023-03-31T12:00:36.615Z,2.50
2023-03-31T12:03:17.177Z,3.50
2023-03-31T12:05:50.784Z,2.90
2023-03-31T12:11:37.921Z,3.20
2023-03-31T12:14:26.493Z,3.40
2023-03-31T12:17:26.565Z,3.50
2023-03-31T12:20:00.165Z,3.00
2023-03-31T12:25:15.202Z,2.70
2023-03-31T12:27:49.917Z,3.60
2023-03-31T12:30:20.843Z,3.80
2023-03-31T12:32:56.170Z,3.90
2023-03-31T12:35:37.474Z,3.90
2023-03-31T12:38:23.576Z,3.50
2023-03-31T12:41:04.811Z,3.80
2023-03-31T12:44:10.554Z,3.80
2023-03-31T12:47:28.369Z,4.00
2023-03-31T12:50:14.798Z,4.30
2023-03-31T12:52:55.638Z,4.70
2023-03-31T12:55:29.139Z,4.10
